sensor_id;sensor_type;location;lat;lon;timestamp;pressure;altitude;pressure_sealevel;temperature;humidity
9189;BME280;34313;50.780;6.084;2022-07-21T00:01:06;99747.66;;;20.95;63.19
9189;BME280;34313;50.780;6.084;2022-07-21T00:03:31;99758.78;;;20.72;64.24
9189;BME280;34313;50.780;6.084;2022-07-21T00:05:57;99773.03;;;20.63;64.89
9189;BME280;34313;50.780;6.084;2022-07-21T00:08:22;99774.38;;;20.39;65.75
9189;BME280;34313;50.780;6.084;2022-07-21T00:10:48;99773.41;;;20.31;66.40
9189;BME280;34313;50.780;6.084;2022-07-21T00:13:13;99764.75;;;20.09;67.18
9189;BME280;34313;50.780;6.084;2022-07-21T00:15:39;99762.75;;;20.01;67.54
9189;BME280;34313;50.780;6.084;2022-07-21T00:18:04;99758.97;;;19.94;68.09
9189;BME280;34313;50.780;6.084;2022-07-21T00:20:30;99752.78;;;19.84;68.44
9189;BME280;34313;50.780;6.084;2022-07-21T00:22:56;99755.47;;;19.84;68.71
9189;BME280;34313;50.780;6.084;2022-07-21T00:25:21;99760.72;;;19.76;69.29
9189;BME280;34313;50.780;6.084;2022-07-21T00:27:47;99754.78;;;19.82;69.40
9189;BME280;34313;50.780;6.084;2022-07-21T00:30:15;99752.94;;;19.73;69.51
9189;BME280;34313;50.780;6.084;2022-07-21T00:32:41;99752.53;;;19.77;69.69
9189;BME280;34313;50.780;6.084;2022-07-21T00:35:09;99739.84;;;19.70;69.94
9189;BME280;34313;50.780;6.084;2022-07-21T00:37:35;99747.03;;;19.69;70.44
9189;BME280;34313;50.780;6.084;2022-07-21T00:40:01;99745.03;;;19.61;70.51
9189;BME280;34313;50.780;6.084;2022-07-21T00:42:28;99755.19;;;19.58;70.75
9189;BME280;34313;50.780;6.084;2022-07-21T00:44:56;99740.28;;;19.55;70.58
9189;BME280;34313;50.780;6.084;2022-07-21T00:47:26;99760.38;;;19.59;70.83
9189;BME280;34313;50.780;6.084;2022-07-21T00:49:52;99756.59;;;19.62;70.99
9189;BME280;34313;50.780;6.084;2022-07-21T00:52:18;99761.38;;;19.58;71.15
9189;BME280;34313;50.780;6.084;2022-07-21T00:54:43;99755.47;;;19.55;71.30
9189;BME280;34313;50.780;6.084;2022-07-21T00:57:10;99757.16;;;19.56;71.29
9189;BME280;34313;50.780;6.084;2022-07-21T00:59:36;99747.88;;;19.50;71.39
9189;BME280;34313;50.780;6.084;2022-07-21T01:02:02;99756.31;;;19.55;71.34
9189;BME280;34313;50.780;6.084;2022-07-21T01:04:28;99750.28;;;19.53;71.46
9189;BME280;34313;50.780;6.084;2022-07-21T01:06:54;99753.22;;;19.50;71.59
9189;BME280;34313;50.780;6.084;2022-07-21T01:09:20;99751.25;;;19.52;71.54
9189;BME280;34313;50.780;6.084;2022-07-21T01:11:46;99749.53;;;19.51;71.70
9189;BME280;34313;50.780;6.084;2022-07-21T01:14:12;99743.94;;;19.44;71.75
9189;BME280;34313;50.780;6.084;2022-07-21T01:16:38;99741.69;;;19.40;71.99
9189;BME280;34313;50.780;6.084;2022-07-21T01:19:05;99741.13;;;19.36;72.27
9189;BME280;34313;50.780;6.084;2022-07-21T01:21:36;99741.69;;;19.40;72.38
9189;BME280;34313;50.780;6.084;2022-07-21T01:24:03;99732.69;;;19.41;71.98
9189;BME280;34313;50.780;6.084;2022-07-21T01:26:29;99739.41;;;19.35;72.17
9189;BME280;34313;50.780;6.084;2022-07-21T01:28:55;99736.03;;;19.33;72.47
9189;BME280;34313;50.780;6.084;2022-07-21T01:31:21;99740.97;;;19.38;72.33
9189;BME280;34313;50.780;6.084;2022-07-21T01:33:47;99743.38;;;19.31;72.65
9189;BME280;34313;50.780;6.084;2022-07-21T01:36:12;99744.63;;;19.37;72.35
9189;BME280;34313;50.780;6.084;2022-07-21T01:38:38;99754.63;;;19.35;72.41
9189;BME280;34313;50.780;6.084;2022-07-21T01:41:22;99752.22;;;19.32;72.32
9189;BME280;34313;50.780;6.084;2022-07-21T01:44:00;99758.56;;;19.31;72.46
9189;BME280;34313;50.780;6.084;2022-07-21T01:46:27;99758.41;;;19.22;72.69
9189;BME280;34313;50.780;6.084;2022-07-21T01:48:53;99760.53;;;19.29;72.68
9189;BME280;34313;50.780;6.084;2022-07-21T01:51:18;99766.72;;;19.29;72.67
9189;BME280;34313;50.780;6.084;2022-07-21T01:53:44;99757.84;;;19.19;73.09
9189;BME280;34313;50.780;6.084;2022-07-21T01:56:09;99759.22;;;19.23;73.22
9189;BME280;34313;50.780;6.084;2022-07-21T01:58:35;99757.69;;;19.30;73.08
9189;BME280;34313;50.780;6.084;2022-07-21T02:01:00;99755.03;;;19.30;73.21
9189;BME280;34313;50.780;6.084;2022-07-21T02:03:26;99764.34;;;19.36;73.09
9189;BME280;34313;50.780;6.084;2022-07-21T02:05:51;99749.84;;;19.29;73.43
9189;BME280;34313;50.780;6.084;2022-07-21T02:08:16;99756.03;;;19.29;73.68
9189;BME280;34313;50.780;6.084;2022-07-21T02:10:42;99756.03;;;19.29;73.52
9189;BME280;34313;50.780;6.084;2022-07-21T02:13:08;99756.56;;;19.23;74.03
9189;BME280;34313;50.780;6.084;2022-07-21T02:15:33;99766.00;;;19.27;74.00
9189;BME280;34313;50.780;6.084;2022-07-21T02:17:59;99759.41;;;19.31;74.20
9189;BME280;34313;50.780;6.084;2022-07-21T02:20:25;99760.97;;;19.34;74.07
9189;BME280;34313;50.780;6.084;2022-07-21T02:22:51;99757.69;;;19.30;74.59
9189;BME280;34313;50.780;6.084;2022-07-21T02:25:17;99763.91;;;19.31;74.43
9189;BME280;34313;50.780;6.084;2022-07-21T02:27:44;99752.06;;;19.33;74.26
9189;BME280;34313;50.780;6.084;2022-07-21T02:30:10;99762.75;;;19.33;74.38
9189;BME280;34313;50.780;6.084;2022-07-21T02:32:36;99759.13;;;19.34;74.28
9189;BME280;34313;50.780;6.084;2022-07-21T02:35:03;99762.91;;;19.32;74.27
9189;BME280;34313;50.780;6.084;2022-07-21T02:37:29;99770.66;;;19.35;74.28
9189;BME280;34313;50.780;6.084;2022-07-21T02:39:54;99750.81;;;19.27;74.53
9189;BME280;34313;50.780;6.084;2022-07-21T02:42:20;99755.47;;;19.25;74.76
9189;BME280;34313;50.780;6.084;2022-07-21T02:44:45;99761.78;;;19.24;75.21
9189;BME280;34313;50.780;6.084;2022-07-21T02:47:10;99763.63;;;19.34;75.00
9189;BME280;34313;50.780;6.084;2022-07-21T02:49:36;99755.72;;;19.22;75.38
9189;BME280;34313;50.780;6.084;2022-07-21T02:52:02;99756.72;;;19.31;75.70
9189;BME280;34313;50.780;6.084;2022-07-21T02:54:27;99766.72;;;19.29;75.63
9189;BME280;34313;50.780;6.084;2022-07-21T02:56:53;99752.63;;;19.17;75.90
9189;BME280;34313;50.780;6.084;2022-07-21T02:59:18;99757.69;;;19.20;75.68
9189;BME280;34313;50.780;6.084;2022-07-21T03:01:44;99753.47;;;19.18;75.86
9189;BME280;34313;50.780;6.084;2022-07-21T03:04:09;99743.06;;;19.15;75.75
9189;BME280;34313;50.780;6.084;2022-07-21T03:06:34;99752.50;;;19.19;75.73
9189;BME280;34313;50.780;6.084;2022-07-21T03:09:00;99746.44;;;19.17;75.65
9189;BME280;34313;50.780;6.084;2022-07-21T03:11:25;99737.44;;;19.18;75.63
9189;BME280;34313;50.780;6.084;2022-07-21T03:13:51;99756.72;;;19.31;75.35
9189;BME280;34313;50.780;6.084;2022-07-21T03:16:16;99744.94;;;19.34;75.21
9189;BME280;34313;50.780;6.084;2022-07-21T03:18:42;99739.28;;;19.37;75.10
9189;BME280;34313;50.780;6.084;2022-07-21T03:21:08;99734.94;;;19.36;74.87
9189;BME280;34313;50.780;6.084;2022-07-21T03:23:33;99737.03;;;19.42;75.00
9189;BME280;34313;50.780;6.084;2022-07-21T03:25:59;99741.97;;;19.46;74.58
9189;BME280;34313;50.780;6.084;2022-07-21T03:28:24;99748.28;;;19.45;74.73
9189;BME280;34313;50.780;6.084;2022-07-21T03:30:50;99747.19;;;19.48;74.52
9189;BME280;34313;50.780;6.084;2022-07-21T03:33:15;99749.53;;;19.51;74.59
9189;BME280;34313;50.780;6.084;2022-07-21T03:35:41;99745.06;;;19.52;74.42
9189;BME280;34313;50.780;6.084;2022-07-21T03:38:07;99749.41;;;19.53;74.27
9189;BME280;34313;50.780;6.084;2022-07-21T03:40:35;99750.28;;;19.53;74.17
9189;BME280;34313;50.780;6.084;2022-07-21T03:43:03;99749.00;;;19.57;74.12
9189;BME280;34313;50.780;6.084;2022-07-21T03:45:29;99746.47;;;19.56;74.32
9189;BME280;34313;50.780;6.084;2022-07-21T03:47:59;99745.03;;;19.61;73.95
9189;BME280;34313;50.780;6.084;2022-07-21T03:50:25;99746.03;;;19.60;73.72
9189;BME280;34313;50.780;6.084;2022-07-21T03:52:51;99753.94;;;19.62;73.92
9189;BME280;34313;50.780;6.084;2022-07-21T03:55:17;99746.88;;;19.61;74.01
9189;BME280;34313;50.780;6.084;2022-07-21T03:58:15;99737.03;;;19.61;73.55
9189;BME280;34313;50.780;6.084;2022-07-21T04:00:43;99734.63;;;19.68;73.45
9189;BME280;34313;50.780;6.084;2022-07-21T04:03:09;99743.66;;;19.67;73.45
9189;BME280;34313;50.780;6.084;2022-07-21T04:05:36;99738.03;;;19.60;73.39
9189;BME280;34313;50.780;6.084;2022-07-21T04:08:02;99740.13;;;19.67;73.40
9189;BME280;34313;50.780;6.084;2022-07-21T04:10:31;99735.06;;;19.63;73.68
9189;BME280;34313;50.780;6.084;2022-07-21T04:13:00;99734.75;;;19.67;73.44
9189;BME280;34313;50.780;6.084;2022-07-21T04:15:26;99728.59;;;19.66;73.39
9189;BME280;34313;50.780;6.084;2022-07-21T04:17:52;99735.78;;;19.65;73.35
9189;BME280;34313;50.780;6.084;2022-07-21T04:20:18;99732.66;;;19.70;73.33
9189;BME280;34313;50.780;6.084;2022-07-21T04:22:44;99737.72;;;19.73;72.59
9189;BME280;34313;50.780;6.084;2022-07-21T04:25:10;99745.38;;;19.78;72.56
9189;BME280;34313;50.780;6.084;2022-07-21T04:27:37;99749.84;;;19.87;72.23
9189;BME280;34313;50.780;6.084;2022-07-21T04:30:04;99748.56;;;19.91;72.19
9189;BME280;34313;50.780;6.084;2022-07-21T04:32:30;99752.94;;;19.92;71.74
9189;BME280;34313;50.780;6.084;2022-07-21T04:34:56;99746.88;;;19.90;71.88
9189;BME280;34313;50.780;6.084;2022-07-21T04:37:21;99750.13;;;19.94;71.48
9189;BME280;34313;50.780;6.084;2022-07-21T04:39:47;99751.78;;;19.95;72.02
9189;BME280;34313;50.780;6.084;2022-07-21T04:42:13;99752.06;;;20.01;71.65
9189;BME280;34313;50.780;6.084;2022-07-21T04:44:38;99748.69;;;19.99;71.57
9189;BME280;34313;50.780;6.084;2022-07-21T04:47:04;99744.31;;;19.98;71.58
9189;BME280;34313;50.780;6.084;2022-07-21T04:49:29;99751.59;;;20.16;71.11
9189;BME280;34313;50.780;6.084;2022-07-21T04:51:55;99756.06;;;20.35;70.36
9189;BME280;34313;50.780;6.084;2022-07-21T04:54:20;99757.41;;;20.49;69.64
9189;BME280;34313;50.780;6.084;2022-07-21T04:56:45;99744.44;;;20.54;69.47
9189;BME280;34313;50.780;6.084;2022-07-21T04:59:11;99766.25;;;20.69;68.88
9189;BME280;34313;50.780;6.084;2022-07-21T05:01:37;99766.66;;;20.74;68.55
9189;BME280;34313;50.780;6.084;2022-07-21T05:04:03;99772.94;;;20.83;68.40
9189;BME280;34313;50.780;6.084;2022-07-21T05:06:29;99790.53;;;20.95;67.74
9189;BME280;34313;50.780;6.084;2022-07-21T05:08:55;99784.69;;;21.00;67.36
9189;BME280;34313;50.780;6.084;2022-07-21T05:11:20;99785.09;;;21.05;67.29
9189;BME280;34313;50.780;6.084;2022-07-21T05:13:45;99782.97;;;21.26;66.47
9189;BME280;34313;50.780;6.084;2022-07-21T05:16:11;99777.81;;;21.61;65.58
9189;BME280;34313;50.780;6.084;2022-07-21T05:18:36;99771.78;;;22.03;64.03
9189;BME280;34313;50.780;6.084;2022-07-21T05:21:02;99768.59;;;22.86;61.73
9189;BME280;34313;50.780;6.084;2022-07-21T05:23:27;99770.63;;;24.81;55.75
9189;BME280;34313;50.780;6.084;2022-07-21T05:25:53;99744.47;;;27.75;48.13
9189;BME280;34313;50.780;6.084;2022-07-21T05:28:18;99751.31;;;29.72;42.44
9189;BME280;34313;50.780;6.084;2022-07-21T05:30:44;99733.56;;;31.83;37.17
9189;BME280;34313;50.780;6.084;2022-07-21T05:33:09;99750.38;;;32.68;35.65
9189;BME280;34313;50.780;6.084;2022-07-21T05:35:34;99759.22;;;33.00;34.94
9189;BME280;34313;50.780;6.084;2022-07-21T05:38:00;99751.97;;;31.88;35.95
9189;BME280;34313;50.780;6.084;2022-07-21T05:40:25;99734.34;;;30.88;37.33
9189;BME280;34313;50.780;6.084;2022-07-21T05:42:51;99748.56;;;30.39;38.59
9189;BME280;34313;50.780;6.084;2022-07-21T05:45:16;99749.41;;;30.39;39.16
9189;BME280;34313;50.780;6.084;2022-07-21T05:47:42;99735.22;;;29.97;39.26
9189;BME280;34313;50.780;6.084;2022-07-21T05:50:08;99751.94;;;29.94;39.33
9189;BME280;34313;50.780;6.084;2022-07-21T05:52:33;99749.56;;;29.37;40.34
9189;BME280;34313;50.780;6.084;2022-07-21T05:54:59;99754.41;;;28.87;41.23
9189;BME280;34313;50.780;6.084;2022-07-21T05:57:24;99758.41;;;28.91;40.95
9189;BME280;34313;50.780;6.084;2022-07-21T05:59:50;99753.53;;;29.21;40.25
9189;BME280;34313;50.780;6.084;2022-07-21T06:02:15;99753.75;;;29.27;39.85
9189;BME280;34313;50.780;6.084;2022-07-21T06:04:41;99752.91;;;29.26;40.37
9189;BME280;34313;50.780;6.084;2022-07-21T06:07:06;99771.34;;;28.96;40.55
9189;BME280;34313;50.780;6.084;2022-07-21T06:09:32;99762.50;;;28.39;41.52
9189;BME280;34313;50.780;6.084;2022-07-21T06:11:57;99767.78;;;27.69;43.10
9189;BME280;34313;50.780;6.084;2022-07-21T06:14:23;99765.09;;;26.96;44.77
9189;BME280;34313;50.780;6.084;2022-07-21T06:16:48;99773.59;;;26.48;46.36
9189;BME280;34313;50.780;6.084;2022-07-21T06:19:14;99771.91;;;26.77;45.79
9189;BME280;34313;50.780;6.084;2022-07-21T06:21:39;99772.94;;;26.61;45.82
9189;BME280;34313;50.780;6.084;2022-07-21T06:24:07;99788.78;;;26.34;46.38
9189;BME280;34313;50.780;6.084;2022-07-21T06:26:32;99769.91;;;25.73;47.92
9189;BME280;34313;50.780;6.084;2022-07-21T06:28:58;99783.06;;;25.22;49.14
9189;BME280;34313;50.780;6.084;2022-07-21T06:31:23;99772.59;;;25.19;49.28
9189;BME280;34313;50.780;6.084;2022-07-21T06:33:49;99771.03;;;25.33;49.46
9189;BME280;34313;50.780;6.084;2022-07-21T06:36:14;99769.59;;;25.45;49.20
9189;BME280;34313;50.780;6.084;2022-07-21T06:38:41;99776.75;;;25.61;48.81
9189;BME280;34313;50.780;6.084;2022-07-21T06:41:07;99762.78;;;25.34;49.12
9189;BME280;34313;50.780;6.084;2022-07-21T06:43:33;99777.09;;;25.35;49.37
9189;BME280;34313;50.780;6.084;2022-07-21T06:45:59;99789.75;;;25.34;49.46
9189;BME280;34313;50.780;6.084;2022-07-21T06:48:25;99780.50;;;24.97;49.88
9189;BME280;34313;50.780;6.084;2022-07-21T06:50:51;99791.53;;;24.79;50.69
9189;BME280;34313;50.780;6.084;2022-07-21T06:53:16;99786.03;;;24.56;51.30
9189;BME280;34313;50.780;6.084;2022-07-21T06:55:42;99774.06;;;24.67;51.13
9189;BME280;34313;50.780;6.084;2022-07-21T06:58:19;99774.56;;;25.02;50.48
9189;BME280;34313;50.780;6.084;2022-07-21T07:00:45;99774.25;;;25.28;49.81
9189;BME280;34313;50.780;6.084;2022-07-21T07:03:12;99773.53;;;25.80;48.26
9189;BME280;34313;50.780;6.084;2022-07-21T07:05:38;99763.34;;;26.29;46.87
9189;BME280;34313;50.780;6.084;2022-07-21T07:08:04;99767.28;;;26.71;46.11
9189;BME280;34313;50.780;6.084;2022-07-21T07:10:30;99771.81;;;26.85;45.54
9189;BME280;34313;50.780;6.084;2022-07-21T07:12:56;99785.06;;;26.95;45.61
9189;BME280;34313;50.780;6.084;2022-07-21T07:15:22;99782.59;;;26.64;46.07
9189;BME280;34313;50.780;6.084;2022-07-21T07:17:48;99784.78;;;26.45;46.26
9189;BME280;34313;50.780;6.084;2022-07-21T07:20:14;99786.91;;;26.20;46.98
9189;BME280;34313;50.780;6.084;2022-07-21T07:22:39;99793.38;;;25.73;48.26
9189;BME280;34313;50.780;6.084;2022-07-21T07:25:05;99790.84;;;25.48;48.60
9189;BME280;34313;50.780;6.084;2022-07-21T07:27:31;99794.34;;;25.25;49.39
9189;BME280;34313;50.780;6.084;2022-07-21T07:29:56;99804.41;;;25.00;49.90
9189;BME280;34313;50.780;6.084;2022-07-21T07:32:21;99802.16;;;25.43;48.88
9189;BME280;34313;50.780;6.084;2022-07-21T07:34:47;99796.66;;;25.83;47.48
9189;BME280;34313;50.780;6.084;2022-07-21T07:37:12;99791.88;;;27.42;43.93
9189;BME280;34313;50.780;6.084;2022-07-21T07:39:37;99782.69;;;28.64;41.42
9189;BME280;34313;50.780;6.084;2022-07-21T07:42:04;99787.88;;;29.08;40.18
9189;BME280;34313;50.780;6.084;2022-07-21T07:44:30;99788.22;;;29.39;39.10
9189;BME280;34313;50.780;6.084;2022-07-21T07:46:56;99789.31;;;29.58;38.56
9189;BME280;34313;50.780;6.084;2022-07-21T07:49:21;99797.09;;;29.13;39.22
9189;BME280;34313;50.780;6.084;2022-07-21T07:51:46;99789.53;;;29.02;39.61
9189;BME280;34313;50.780;6.084;2022-07-21T07:54:14;99795.28;;;28.85;40.23
9189;BME280;34313;50.780;6.084;2022-07-21T07:56:39;99791.91;;;28.42;40.50
9189;BME280;34313;50.780;6.084;2022-07-21T07:59:05;99792.03;;;27.99;41.34
9189;BME280;34313;50.780;6.084;2022-07-21T08:01:30;99792.88;;;27.56;42.07
9189;BME280;34313;50.780;6.084;2022-07-21T08:03:56;99792.44;;;27.59;42.27
9189;BME280;34313;50.780;6.084;2022-07-21T08:06:21;99793.81;;;27.70;41.96
9189;BME280;34313;50.780;6.084;2022-07-21T08:08:47;99797.88;;;27.38;42.41
9189;BME280;34313;50.780;6.084;2022-07-21T08:11:12;99802.31;;;27.45;42.57
9189;BME280;34313;50.780;6.084;2022-07-21T08:13:38;99804.25;;;27.73;42.19
9189;BME280;34313;50.780;6.084;2022-07-21T08:16:04;99804.38;;;27.43;42.51
9189;BME280;34313;50.780;6.084;2022-07-21T08:18:30;99802.84;;;28.27;41.17
9189;BME280;34313;50.780;6.084;2022-07-21T08:20:55;99792.03;;;30.52;36.77
9189;BME280;34313;50.780;6.084;2022-07-21T08:23:20;99797.63;;;33.78;31.42
9189;BME280;34313;50.780;6.084;2022-07-21T08:25:46;99792.72;;;35.84;28.04
9189;BME280;34313;50.780;6.084;2022-07-21T08:28:12;99781.03;;;36.45;26.73
9189;BME280;34313;50.780;6.084;2022-07-21T08:30:37;99782.53;;;34.93;28.07
9189;BME280;34313;50.780;6.084;2022-07-21T08:33:03;99781.94;;;33.12;30.21
9189;BME280;34313;50.780;6.084;2022-07-21T08:35:41;99789.41;;;33.35;30.40
9189;BME280;34313;50.780;6.084;2022-07-21T08:38:08;99783.69;;;32.51;31.15
9189;BME280;34313;50.780;6.084;2022-07-21T08:40:37;99793.91;;;31.87;32.45
9189;BME280;34313;50.780;6.084;2022-07-21T08:43:04;99792.38;;;30.82;33.86
9189;BME280;34313;50.780;6.084;2022-07-21T08:45:29;99787.22;;;30.34;34.86
9189;BME280;34313;50.780;6.084;2022-07-21T08:47:56;99796.69;;;29.91;35.91
9189;BME280;34313;50.780;6.084;2022-07-21T08:50:24;99788.69;;;29.56;36.62
9189;BME280;34313;50.780;6.084;2022-07-21T08:52:50;99789.50;;;29.44;36.93
9189;BME280;34313;50.780;6.084;2022-07-21T08:55:15;99795.16;;;29.00;37.64
9189;BME280;34313;50.780;6.084;2022-07-21T08:57:41;99805.88;;;28.39;39.01
9189;BME280;34313;50.780;6.084;2022-07-21T09:00:08;99788.38;;;28.13;39.60
9189;BME280;34313;50.780;6.084;2022-07-21T09:02:35;99795.22;;;27.87;40.12
9189;BME280;34313;50.780;6.084;2022-07-21T09:05:01;99800.41;;;28.04;40.02
9189;BME280;34313;50.780;6.084;2022-07-21T09:07:27;99795.03;;;27.89;40.18
9189;BME280;34313;50.780;6.084;2022-07-21T09:09:57;99796.44;;;28.06;39.94
9189;BME280;34313;50.780;6.084;2022-07-21T09:12:24;99805.31;;;27.94;40.64
9189;BME280;34313;50.780;6.084;2022-07-21T09:14:50;99797.41;;;27.19;42.29
9189;BME280;34313;50.780;6.084;2022-07-21T09:17:17;99805.88;;;26.65;43.92
9189;BME280;34313;50.780;6.084;2022-07-21T09:19:44;99816.31;;;26.00;45.37
9189;BME280;34313;50.780;6.084;2022-07-21T09:22:18;99819.78;;;25.54;46.83
9189;BME280;34313;50.780;6.084;2022-07-21T09:24:51;99825.81;;;25.33;47.84
9189;BME280;34313;50.780;6.084;2022-07-21T09:27:18;99826.47;;;25.04;48.83
9189;BME280;34313;50.780;6.084;2022-07-21T09:34:45;99825.47;;;24.00;52.08
9189;BME280;34313;50.780;6.084;2022-07-21T09:37:11;99824.66;;;24.07;51.99
9189;BME280;34313;50.780;6.084;2022-07-21T09:39:51;99825.00;;;24.12;52.13
9189;BME280;34313;50.780;6.084;2022-07-21T09:42:20;99833.38;;;24.01;52.26
9189;BME280;34313;50.780;6.084;2022-07-21T09:44:49;99824.63;;;23.91;52.75
9189;BME280;34313;50.780;6.084;2022-07-21T09:47:16;99832.03;;;23.81;53.24
9189;BME280;34313;50.780;6.084;2022-07-21T09:49:42;99824.56;;;23.50;54.34
9189;BME280;34313;50.780;6.084;2022-07-21T09:54:47;99832.50;;;23.09;56.29
9189;BME280;34313;50.780;6.084;2022-07-21T09:57:15;99838.25;;;23.14;56.37
9189;BME280;34313;50.780;6.084;2022-07-21T09:59:43;99831.53;;;23.10;57.16
9189;BME280;34313;50.780;6.084;2022-07-21T10:02:48;99832.00;;;23.05;57.80
9189;BME280;34313;50.780;6.084;2022-07-21T10:05:16;99841.81;;;22.88;58.54
9189;BME280;34313;50.780;6.084;2022-07-21T10:07:44;99845.75;;;23.02;58.58
9189;BME280;34313;50.780;6.084;2022-07-21T10:10:11;99847.66;;;23.10;58.94
9189;BME280;34313;50.780;6.084;2022-07-21T10:12:37;99844.50;;;23.22;59.09
9189;BME280;34313;50.780;6.084;2022-07-21T10:15:03;99850.53;;;23.16;59.67
9189;BME280;34313;50.780;6.084;2022-07-21T10:17:28;99840.75;;;23.07;59.75
9189;BME280;34313;50.780;6.084;2022-07-21T10:20:16;99853.28;;;22.98;60.26
9189;BME280;34313;50.780;6.084;2022-07-21T10:23:06;99851.56;;;22.89;60.93
9189;BME280;34313;50.780;6.084;2022-07-21T10:25:35;99847.91;;;22.64;61.93
9189;BME280;34313;50.780;6.084;2022-07-21T10:30:41;99853.19;;;22.48;62.68
9189;BME280;34313;50.780;6.084;2022-07-21T10:33:07;99847.28;;;22.26;63.51
9189;BME280;34313;50.780;6.084;2022-07-21T10:35:33;99856.19;;;22.26;63.73
9189;BME280;34313;50.780;6.084;2022-07-21T10:38:00;99855.28;;;22.18;64.13
9189;BME280;34313;50.780;6.084;2022-07-21T10:47:58;99873.63;;;21.86;66.13
9189;BME280;34313;50.780;6.084;2022-07-21T10:52:58;99868.88;;;21.80;66.77
9189;BME280;34313;50.780;6.084;2022-07-21T10:55:25;99879.06;;;21.77;66.72
9189;BME280;34313;50.780;6.084;2022-07-21T11:00:44;99873.84;;;21.75;67.23
9189;BME280;34313;50.780;6.084;2022-07-21T11:03:35;99874.63;;;21.85;66.73
9189;BME280;34313;50.780;6.084;2022-07-21T11:11:33;99873.91;;;22.01;66.07
9189;BME280;34313;50.780;6.084;2022-07-21T11:19:46;99874.69;;;21.94;66.20
9189;BME280;34313;50.780;6.084;2022-07-21T11:22:20;99880.59;;;21.97;66.58
9189;BME280;34313;50.780;6.084;2022-07-21T11:24:51;99876.31;;;22.04;66.83
9189;BME280;34313;50.780;6.084;2022-07-21T11:27:19;99855.38;;;22.08;65.92
9189;BME280;34313;50.780;6.084;2022-07-21T11:29:47;99869.00;;;22.15;65.74
9189;BME280;34313;50.780;6.084;2022-07-21T11:32:15;99877.91;;;22.15;65.90
9189;BME280;34313;50.780;6.084;2022-07-21T11:34:48;99868.34;;;22.13;65.92
9189;BME280;34313;50.780;6.084;2022-07-21T11:37:18;99867.16;;;22.15;66.16
9189;BME280;34313;50.780;6.084;2022-07-21T11:39:44;99869.69;;;22.17;65.75
9189;BME280;34313;50.780;6.084;2022-07-21T11:42:14;99867.94;;;22.07;65.94
9189;BME280;34313;50.780;6.084;2022-07-21T11:44:42;99868.31;;;21.95;66.64
9189;BME280;34313;50.780;6.084;2022-07-21T11:47:11;99875.63;;;22.02;66.80
9189;BME280;34313;50.780;6.084;2022-07-21T11:49:37;99876.16;;;21.88;67.64
9189;BME280;34313;50.780;6.084;2022-07-21T11:52:03;99871.09;;;21.85;67.95
9189;BME280;34313;50.780;6.084;2022-07-21T11:54:35;99870.03;;;21.78;67.85
9189;BME280;34313;50.780;6.084;2022-07-21T11:57:03;99870.41;;;21.83;67.69
9189;BME280;34313;50.780;6.084;2022-07-21T11:59:29;99870.22;;;21.84;67.83
9189;BME280;34313;50.780;6.084;2022-07-21T12:01:56;99868.69;;;22.00;67.57
9189;BME280;34313;50.780;6.084;2022-07-21T12:05:08;99867.16;;;22.15;66.77
9189;BME280;34313;50.780;6.084;2022-07-21T12:07:29;99861.63;;;22.35;66.16
9189;BME280;34313;50.780;6.084;2022-07-21T12:10:00;99859.75;;;22.53;65.46
9189;BME280;34313;50.780;6.084;2022-07-21T12:12:36;99853.13;;;22.65;64.95
9189;BME280;34313;50.780;6.084;2022-07-21T12:17:48;99864.44;;;23.12;63.98
9189;BME280;34313;50.780;6.084;2022-07-21T12:20:24;99863.66;;;23.19;63.67
9189;BME280;34313;50.780;6.084;2022-07-21T12:22:49;99858.63;;;23.25;63.92
9189;BME280;34313;50.780;6.084;2022-07-21T12:25:17;99866.53;;;23.26;63.55
9189;BME280;34313;50.780;6.084;2022-07-21T12:27:45;99859.84;;;23.38;63.47
9189;BME280;34313;50.780;6.084;2022-07-21T12:30:29;99866.44;;;23.52;63.10
9189;BME280;34313;50.780;6.084;2022-07-21T12:35:29;99864.75;;;23.59;62.49
9189;BME280;34313;50.780;6.084;2022-07-21T12:40:49;99870.66;;;23.55;62.93
9189;BME280;34313;50.780;6.084;2022-07-21T12:43:22;99883.53;;;23.27;63.94
9189;BME280;34313;50.780;6.084;2022-07-21T12:45:55;99882.50;;;22.93;64.86
9189;BME280;34313;50.780;6.084;2022-07-21T12:48:23;99891.72;;;22.64;65.76
9189;BME280;34313;50.780;6.084;2022-07-21T12:53:23;99906.03;;;21.93;66.35
9189;BME280;34313;50.780;6.084;2022-07-21T12:55:48;99905.84;;;21.86;67.04
9189;BME280;34313;50.780;6.084;2022-07-21T12:58:13;99901.25;;;21.97;67.01
9189;BME280;34313;50.780;6.084;2022-07-21T13:00:39;99896.06;;;22.03;66.94
9189;BME280;34313;50.780;6.084;2022-07-21T13:03:07;99899.94;;;22.01;66.71
9189;BME280;34313;50.780;6.084;2022-07-21T13:05:35;99904.28;;;21.84;67.33
9189;BME280;34313;50.780;6.084;2022-07-21T13:08:01;99898.09;;;21.83;66.72
9189;BME280;34313;50.780;6.084;2022-07-21T13:10:27;99901.59;;;21.66;67.48
9189;BME280;34313;50.780;6.084;2022-07-21T13:12:54;99907.88;;;21.75;67.08
9189;BME280;34313;50.780;6.084;2022-07-21T13:15:19;99908.28;;;21.80;67.14
9189;BME280;34313;50.780;6.084;2022-07-21T13:17:45;99889.94;;;21.75;66.79
9189;BME280;34313;50.780;6.084;2022-07-21T13:20:11;99914.56;;;21.70;67.28
9189;BME280;34313;50.780;6.084;2022-07-21T13:22:37;99915.69;;;21.68;67.54
9189;BME280;34313;50.780;6.084;2022-07-21T13:25:03;99912.84;;;21.51;68.20
9189;BME280;34313;50.780;6.084;2022-07-21T13:27:29;99918.34;;;21.40;69.11
9189;BME280;34313;50.780;6.084;2022-07-21T13:29:55;99922.63;;;21.33;69.05
9189;BME280;34313;50.780;6.084;2022-07-21T13:32:20;99922.53;;;21.25;68.24
9189;BME280;34313;50.780;6.084;2022-07-21T13:34:46;99926.00;;;21.07;68.72
9189;BME280;34313;50.780;6.084;2022-07-21T13:37:11;99913.56;;;21.06;68.57
9189;BME280;34313;50.780;6.084;2022-07-21T13:39:40;99922.78;;;21.04;67.80
9189;BME280;34313;50.780;6.084;2022-07-21T13:42:06;99924.00;;;21.09;67.84
9189;BME280;34313;50.780;6.084;2022-07-21T13:44:33;99923.63;;;21.32;66.79
9189;BME280;34313;50.780;6.084;2022-07-21T13:46:59;99930.59;;;21.52;66.43
9189;BME280;34313;50.780;6.084;2022-07-21T13:49:24;99929.63;;;21.71;65.60
9189;BME280;34313;50.780;6.084;2022-07-21T13:51:49;99928.06;;;21.97;64.73
9189;BME280;34313;50.780;6.084;2022-07-21T13:54:15;99930.66;;;22.06;64.56